sensor_id;sensor_type;location;lat;lon;timestamp;temperature;humidity
3678;DHT22;1855;50.934;6.958;2023-11-21T00:00:01;8.90;99.90
3678;DHT22;1855;50.934;6.958;2023-11-21T00:02:30;8.90;99.90
3678;DHT22;1855;50.934;6.958;2023-11-21T00:04:56;8.90;99.90
3678;DHT22;1855;50.934;6.958;2023-11-21T00:07:23;8.90;99.90
3678;DHT22;1855;50.934;6.958;2023-11-21T00:09:50;8.90;99.90
3678;DHT22;1855;50.934;6.958;2023-11-21T00:12:17;8.90;99.90
3678;DHT22;1855;50.934;6.958;2023-11-21T00:14:43;8.80;99.90
3678;DHT22;1855;50.934;6.958;2023-11-21T00:17:10;8.90;99.90
3678;DHT22;1855;50.934;6.958;2023-11-21T00:19:38;8.90;99.90
3678;DHT22;1855;50.934;6.958;2023-11-21T00:22:05;8.90;99.90
3678;DHT22;1855;50.934;6.958;2023-11-21T00:24:32;8.90;99.90
3678;DHT22;1855;50.934;6.958;2023-11-21T00:26:59;8.90;99.90
3678;DHT22;1855;50.934;6.958;2023-11-21T00:29:26;8.90;99.90
3678;DHT22;1855;50.934;6.958;2023-11-21T00:31:52;8.90;99.90
3678;DHT22;1855;50.934;6.958;2023-11-21T00:34:20;8.90;99.90
3678;DHT22;1855;50.934;6.958;2023-11-21T00:36:48;8.90;99.90
3678;DHT22;1855;50.934;6.958;2023-11-21T00:39:14;8.90;99.90
3678;DHT22;1855;50.934;6.958;2023-11-21T00:41:41;8.90;99.90
3678;DHT22;1855;50.934;6.958;2023-11-21T00:44:10;8.90;99.90
3678;DHT22;1855;50.934;6.958;2023-11-21T00:46:36;8.90;99.90
3678;DHT22;1855;50.934;6.958;2023-11-21T00:49:03;8.90;99.90
3678;DHT22;1855;50.934;6.958;2023-11-21T00:51:30;8.90;99.90
3678;DHT22;1855;50.934;6.958;2023-11-21T00:53:58;8.90;99.90
3678;DHT22;1855;50.934;6.958;2023-11-21T00:56:25;8.90;99.90
3678;DHT22;1855;50.934;6.958;2023-11-21T00:58:52;8.90;99.90
3678;DHT22;1855;50.934;6.958;2023-11-21T01:01:19;8.90;99.90
3678;DHT22;1855;50.934;6.958;2023-11-21T01:03:46;8.90;99.90
3678;DHT22;1855;50.934;6.958;2023-11-21T01:06:14;8.90;99.90
3678;DHT22;1855;50.934;6.958;2023-11-21T01:08:40;8.80;99.90
3678;DHT22;1855;50.934;6.958;2023-11-21T01:11:08;8.80;99.90
3678;DHT22;1855;50.934;6.958;2023-11-21T01:13:37;8.70;99.90
3678;DHT22;1855;50.934;6.958;2023-11-21T01:16:07;8.70;99.90
3678;DHT22;1855;50.934;6.958;2023-11-21T01:18:34;8.60;99.90
3678;DHT22;1855;50.934;6.958;2023-11-21T01:21:01;8.60;99.90
3678;DHT22;1855;50.934;6.958;2023-11-21T01:23:28;8.50;99.90
3678;DHT22;1855;50.934;6.958;2023-11-21T01:25:56;8.50;99.90
3678;DHT22;1855;50.934;6.958;2023-11-21T01:28:24;8.50;99.90
3678;DHT22;1855;50.934;6.958;2023-11-21T01:30:51;8.60;99.90
3678;DHT22;1855;50.934;6.958;2023-11-21T01:33:21;8.60;99.90
3678;DHT22;1855;50.934;6.958;2023-11-21T01:35:50;8.60;99.90
3678;DHT22;1855;50.934;6.958;2023-11-21T01:38:18;8.60;99.90
3678;DHT22;1855;50.934;6.958;2023-11-21T01:40:45;8.60;99.90
3678;DHT22;1855;50.934;6.958;2023-11-21T01:43:12;8.70;99.90
3678;DHT22;1855;50.934;6.958;2023-11-21T01:45:40;8.70;99.90
3678;DHT22;1855;50.934;6.958;2023-11-21T01:48:07;8.70;99.90
3678;DHT22;1855;50.934;6.958;2023-11-21T01:50:34;8.70;99.90
3678;DHT22;1855;50.934;6.958;2023-11-21T01:53:01;8.70;99.90
3678;DHT22;1855;50.934;6.958;2023-11-21T01:55:28;8.60;99.90
3678;DHT22;1855;50.934;6.958;2023-11-21T01:57:56;8.60;99.90
3678;DHT22;1855;50.934;6.958;2023-11-21T02:00:23;8.60;99.90
3678;DHT22;1855;50.934;6.958;2023-11-21T02:02:52;8.60;99.90
3678;DHT22;1855;50.934;6.958;2023-11-21T02:05:20;8.50;99.90
3678;DHT22;1855;50.934;6.958;2023-11-21T02:07:47;8.40;99.90
3678;DHT22;1855;50.934;6.958;2023-11-21T02:10:14;8.40;99.90
3678;DHT22;1855;50.934;6.958;2023-11-21T02:12:41;8.30;99.90
3678;DHT22;1855;50.934;6.958;2023-11-21T02:15:10;8.30;99.90
3678;DHT22;1855;50.934;6.958;2023-11-21T02:17:41;8.30;99.90
3678;DHT22;1855;50.934;6.958;2023-11-21T02:20:11;8.20;99.90
3678;DHT22;1855;50.934;6.958;2023-11-21T02:22:41;8.20;99.90
3678;DHT22;1855;50.934;6.958;2023-11-21T02:25:09;8.20;99.90
3678;DHT22;1855;50.934;6.958;2023-11-21T02:27:36;8.10;99.90
3678;DHT22;1855;50.934;6.958;2023-11-21T02:30:03;8.10;99.90
3678;DHT22;1855;50.934;6.958;2023-11-21T02:32:33;8.10;99.90
3678;DHT22;1855;50.934;6.958;2023-11-21T02:35:00;8.10;99.90
3678;DHT22;1855;50.934;6.958;2023-11-21T02:37:28;8.20;99.90
3678;DHT22;1855;50.934;6.958;2023-11-21T02:39:55;8.20;99.90
3678;DHT22;1855;50.934;6.958;2023-11-21T02:42:23;8.30;99.90
3678;DHT22;1855;50.934;6.958;2023-11-21T02:44:50;8.30;99.90
3678;DHT22;1855;50.934;6.958;2023-11-21T02:47:17;8.30;99.90
3678;DHT22;1855;50.934;6.958;2023-11-21T02:49:44;8.30;99.90
3678;DHT22;1855;50.934;6.958;2023-11-21T02:52:10;8.40;99.90
3678;DHT22;1855;50.934;6.958;2023-11-21T02:54:37;8.50;99.90
3678;DHT22;1855;50.934;6.958;2023-11-21T02:57:04;8.50;99.90
3678;DHT22;1855;50.934;6.958;2023-11-21T02:59:32;8.50;99.90
3678;DHT22;1855;50.934;6.958;2023-11-21T03:02:00;8.50;99.90
3678;DHT22;1855;50.934;6.958;2023-11-21T03:04:27;8.50;99.90
3678;DHT22;1855;50.934;6.958;2023-11-21T03:06:53;8.60;99.90
3678;DHT22;1855;50.934;6.958;2023-11-21T03:09:20;8.60;99.90
3678;DHT22;1855;50.934;6.958;2023-11-21T03:11:47;8.60;99.90
3678;DHT22;1855;50.934;6.958;2023-11-21T03:14:13;8.60;99.90
3678;DHT22;1855;50.934;6.958;2023-11-21T03:16:41;8.60;99.90
3678;DHT22;1855;50.934;6.958;2023-11-21T03:19:10;8.60;99.90
3678;DHT22;1855;50.934;6.958;2023-11-21T03:21:37;8.60;99.90
3678;DHT22;1855;50.934;6.958;2023-11-21T03:24:04;8.60;99.90
3678;DHT22;1855;50.934;6.958;2023-11-21T03:26:32;8.60;99.90
3678;DHT22;1855;50.934;6.958;2023-11-21T03:28:59;8.70;99.90
3678;DHT22;1855;50.934;6.958;2023-11-21T03:31:26;8.60;99.90
3678;DHT22;1855;50.934;6.958;2023-11-21T03:33:54;8.60;99.90
3678;DHT22;1855;50.934;6.958;2023-11-21T03:36:21;8.60;99.90
3678;DHT22;1855;50.934;6.958;2023-11-21T03:38:48;8.60;99.90
3678;DHT22;1855;50.934;6.958;2023-11-21T03:41:14;8.60;99.90
3678;DHT22;1855;50.934;6.958;2023-11-21T03:43:41;8.60;99.90
3678;DHT22;1855;50.934;6.958;2023-11-21T03:46:08;8.60;99.90
3678;DHT22;1855;50.934;6.958;2023-11-21T03:48:35;8.60;99.90
3678;DHT22;1855;50.934;6.958;2023-11-21T03:51:04;8.60;99.90
3678;DHT22;1855;50.934;6.958;2023-11-21T03:53:30;8.60;99.90
3678;DHT22;1855;50.934;6.958;2023-11-21T03:55:57;8.50;99.90
3678;DHT22;1855;50.934;6.958;2023-11-21T03:58:24;8.60;99.90
3678;DHT22;1855;50.934;6.958;2023-11-21T04:00:51;8.50;99.90
3678;DHT22;1855;50.934;6.958;2023-11-21T04:03:17;8.60;99.90
3678;DHT22;1855;50.934;6.958;2023-11-21T04:05:45;8.50;99.90
3678;DHT22;1855;50.934;6.958;2023-11-21T04:08:14;8.50;99.90
3678;DHT22;1855;50.934;6.958;2023-11-21T04:10:40;8.50;99.90
3678;DHT22;1855;50.934;6.958;2023-11-21T04:13:07;8.50;99.90
3678;DHT22;1855;50.934;6.958;2023-11-21T04:15:34;8.50;99.90
3678;DHT22;1855;50.934;6.958;2023-11-21T04:18:01;8.60;99.90
3678;DHT22;1855;50.934;6.958;2023-11-21T04:20:28;8.60;99.90
3678;DHT22;1855;50.934;6.958;2023-11-21T04:22:54;8.50;99.90
3678;DHT22;1855;50.934;6.958;2023-11-21T04:25:22;8.50;99.90
3678;DHT22;1855;50.934;6.958;2023-11-21T04:27:49;8.60;99.90
3678;DHT22;1855;50.934;6.958;2023-11-21T04:30:16;8.50;99.90
3678;DHT22;1855;50.934;6.958;2023-11-21T04:32:43;8.50;99.90
3678;DHT22;1855;50.934;6.958;2023-11-21T04:35:09;8.50;99.90
3678;DHT22;1855;50.934;6.958;2023-11-21T04:37:36;8.50;99.90
3678;DHT22;1855;50.934;6.958;2023-11-21T04:40:04;8.50;99.90
3678;DHT22;1855;50.934;6.958;2023-11-21T04:42:34;8.50;99.90
3678;DHT22;1855;50.934;6.958;2023-11-21T04:45:01;8.50;99.90
3678;DHT22;1855;50.934;6.958;2023-11-21T04:47:30;8.50;99.90
3678;DHT22;1855;50.934;6.958;2023-11-21T04:49:57;8.50;99.90
3678;DHT22;1855;50.934;6.958;2023-11-21T04:52:24;8.40;99.90
3678;DHT22;1855;50.934;6.958;2023-11-21T04:54:50;8.40;99.90
3678;DHT22;1855;50.934;6.958;2023-11-21T04:57:19;8.50;99.90
3678;DHT22;1855;50.934;6.958;2023-11-21T04:59:48;8.40;99.90
3678;DHT22;1855;50.934;6.958;2023-11-21T05:02:15;8.40;99.90
3678;DHT22;1855;50.934;6.958;2023-11-21T05:04:44;8.40;99.90
3678;DHT22;1855;50.934;6.958;2023-11-21T05:07:11;8.40;99.90
3678;DHT22;1855;50.934;6.958;2023-11-21T05:09:41;8.30;99.90
3678;DHT22;1855;50.934;6.958;2023-11-21T05:12:09;8.30;99.90
3678;DHT22;1855;50.934;6.958;2023-11-21T05:14:36;8.30;99.90
3678;DHT22;1855;50.934;6.958;2023-11-21T05:17:05;8.30;99.90
3678;DHT22;1855;50.934;6.958;2023-11-21T05:19:33;8.30;99.90
3678;DHT22;1855;50.934;6.958;2023-11-21T05:22:00;8.30;99.90
3678;DHT22;1855;50.934;6.958;2023-11-21T05:24:27;8.30;99.90
3678;DHT22;1855;50.934;6.958;2023-11-21T05:26:54;8.30;99.90
3678;DHT22;1855;50.934;6.958;2023-11-21T05:29:21;8.30;99.90
3678;DHT22;1855;50.934;6.958;2023-11-21T05:31:48;8.30;99.90
3678;DHT22;1855;50.934;6.958;2023-11-21T05:34:16;8.30;99.90
3678;DHT22;1855;50.934;6.958;2023-11-21T05:36:43;8.30;99.90
3678;DHT22;1855;50.934;6.958;2023-11-21T05:39:11;8.30;99.90
3678;DHT22;1855;50.934;6.958;2023-11-21T05:41:38;8.30;99.90
3678;DHT22;1855;50.934;6.958;2023-11-21T05:44:04;8.30;99.90
3678;DHT22;1855;50.934;6.958;2023-11-21T05:46:31;8.30;99.90
3678;DHT22;1855;50.934;6.958;2023-11-21T05:48:58;8.40;99.90
3678;DHT22;1855;50.934;6.958;2023-11-21T05:51:26;8.30;99.90
3678;DHT22;1855;50.934;6.958;2023-11-21T05:53:53;8.40;99.90
3678;DHT22;1855;50.934;6.958;2023-11-21T05:56:20;8.40;99.90
3678;DHT22;1855;50.934;6.958;2023-11-21T05:58:47;8.40;99.90
3678;DHT22;1855;50.934;6.958;2023-11-21T06:01:14;8.40;99.90
3678;DHT22;1855;50.934;6.958;2023-11-21T06:03:40;8.30;99.90
3678;DHT22;1855;50.934;6.958;2023-11-21T06:06:08;8.40;99.90
3678;DHT22;1855;50.934;6.958;2023-11-21T06:08:36;8.40;99.90
3678;DHT22;1855;50.934;6.958;2023-11-21T06:11:03;8.40;99.90
3678;DHT22;1855;50.934;6.958;2023-11-21T06:13:30;8.40;99.90
3678;DHT22;1855;50.934;6.958;2023-11-21T06:15:57;8.40;99.90
3678;DHT22;1855;50.934;6.958;2023-11-21T06:18:23;8.40;99.90
3678;DHT22;1855;50.934;6.958;2023-11-21T06:20:50;8.40;99.90
3678;DHT22;1855;50.934;6.958;2023-11-21T06:23:18;8.40;99.90
3678;DHT22;1855;50.934;6.958;2023-11-21T06:25:46;8.40;99.90
3678;DHT22;1855;50.934;6.958;2023-11-21T06:28:14;8.40;99.90
3678;DHT22;1855;50.934;6.958;2023-11-21T06:30:43;8.40;99.90
3678;DHT22;1855;50.934;6.958;2023-11-21T06:33:10;8.40;99.90
3678;DHT22;1855;50.934;6.958;2023-11-21T06:35:37;8.40;99.90
3678;DHT22;1855;50.934;6.958;2023-11-21T06:38:03;8.40;99.90
3678;DHT22;1855;50.934;6.958;2023-11-21T06:40:30;8.40;99.90
3678;DHT22;1855;50.934;6.958;2023-11-21T06:43:00;8.40;99.90
3678;DHT22;1855;50.934;6.958;2023-11-21T06:45:27;8.40;99.90
3678;DHT22;1855;50.934;6.958;2023-11-21T06:47:54;8.40;99.90
3678;DHT22;1855;50.934;6.958;2023-11-21T06:50:20;8.40;99.90
3678;DHT22;1855;50.934;6.958;2023-11-21T06:52:47;8.30;99.90
3678;DHT22;1855;50.934;6.958;2023-11-21T06:55:14;8.30;99.90
3678;DHT22;1855;50.934;6.958;2023-11-21T06:57:41;8.30;99.90
3678;DHT22;1855;50.934;6.958;2023-11-21T07:00:10;8.30;99.90
3678;DHT22;1855;50.934;6.958;2023-11-21T07:02:37;8.30;99.90
3678;DHT22;1855;50.934;6.958;2023-11-21T07:05:05;8.30;99.90
3678;DHT22;1855;50.934;6.958;2023-11-21T07:07:32;8.30;99.90
3678;DHT22;1855;50.934;6.958;2023-11-21T07:10:01;8.30;99.90
3678;DHT22;1855;50.934;6.958;2023-11-21T07:12:29;8.30;99.90
3678;DHT22;1855;50.934;6.958;2023-11-21T07:14:56;8.30;99.90
3678;DHT22;1855;50.934;6.958;2023-11-21T07:17:24;8.30;99.90
3678;DHT22;1855;50.934;6.958;2023-11-21T07:19:51;8.30;99.90
3678;DHT22;1855;50.934;6.958;2023-11-21T07:22:18;8.40;99.90
3678;DHT22;1855;50.934;6.958;2023-11-21T07:24:48;8.40;99.90
3678;DHT22;1855;50.934;6.958;2023-11-21T07:27:16;8.40;99.90
3678;DHT22;1855;50.934;6.958;2023-11-21T07:29:42;8.50;99.90
3678;DHT22;1855;50.934;6.958;2023-11-21T07:32:09;8.50;99.90
3678;DHT22;1855;50.934;6.958;2023-11-21T07:34:37;8.50;99.90
3678;DHT22;1855;50.934;6.958;2023-11-21T07:37:04;8.60;99.90
3678;DHT22;1855;50.934;6.958;2023-11-21T07:39:31;8.60;99.90
3678;DHT22;1855;50.934;6.958;2023-11-21T07:41:57;8.70;99.90
3678;DHT22;1855;50.934;6.958;2023-11-21T07:44:24;8.70;99.90
3678;DHT22;1855;50.934;6.958;2023-11-21T07:46:51;8.80;99.90
3678;DHT22;1855;50.934;6.958;2023-11-21T07:49:22;8.80;99.90
3678;DHT22;1855;50.934;6.958;2023-11-21T07:51:50;8.80;99.90
3678;DHT22;1855;50.934;6.958;2023-11-21T07:54:17;8.80;99.90
3678;DHT22;1855;50.934;6.958;2023-11-21T07:56:44;8.90;99.90
3678;DHT22;1855;50.934;6.958;2023-11-21T07:59:10;8.90;99.90
3678;DHT22;1855;50.934;6.958;2023-11-21T08:01:38;8.90;99.90
3678;DHT22;1855;50.934;6.958;2023-11-21T08:04:05;8.90;99.90
3678;DHT22;1855;50.934;6.958;2023-11-21T08:06:33;9.00;99.90
3678;DHT22;1855;50.934;6.958;2023-11-21T08:09:02;9.00;99.90
3678;DHT22;1855;50.934;6.958;2023-11-21T08:11:29;9.00;99.90
3678;DHT22;1855;50.934;6.958;2023-11-21T08:13:57;9.10;99.90
3678;DHT22;1855;50.934;6.958;2023-11-21T08:16:24;9.10;99.90
3678;DHT22;1855;50.934;6.958;2023-11-21T08:18:51;9.10;99.90
3678;DHT22;1855;50.934;6.958;2023-11-21T08:21:18;9.10;99.90
3678;DHT22;1855;50.934;6.958;2023-11-21T08:23:45;9.10;99.90
3678;DHT22;1855;50.934;6.958;2023-11-21T08:26:15;9.20;99.90
3678;DHT22;1855;50.934;6.958;2023-11-21T08:28:42;9.20;99.90
3678;DHT22;1855;50.934;6.958;2023-11-21T08:31:09;9.30;99.90
3678;DHT22;1855;50.934;6.958;2023-11-21T08:33:36;9.30;99.90
3678;DHT22;1855;50.934;6.958;2023-11-21T08:36:07;9.40;99.90
3678;DHT22;1855;50.934;6.958;2023-11-21T08:38:34;9.40;99.90
3678;DHT22;1855;50.934;6.958;2023-11-21T08:41:04;9.40;99.90
3678;DHT22;1855;50.934;6.958;2023-11-21T08:43:34;9.40;99.90
3678;DHT22;1855;50.934;6.958;2023-11-21T08:46:00;9.40;99.90
3678;DHT22;1855;50.934;6.958;2023-11-21T08:48:28;9.40;99.90
3678;DHT22;1855;50.934;6.958;2023-11-21T08:50:55;9.40;99.90
3678;DHT22;1855;50.934;6.958;2023-11-21T08:53:22;9.40;99.90
3678;DHT22;1855;50.934;6.958;2023-11-21T08:55:49;9.40;99.90
3678;DHT22;1855;50.934;6.958;2023-11-21T08:58:15;9.40;99.90
3678;DHT22;1855;50.934;6.958;2023-11-21T09:00:44;9.40;99.90
3678;DHT22;1855;50.934;6.958;2023-11-21T09:03:11;9.40;99.90
3678;DHT22;1855;50.934;6.958;2023-11-21T09:05:38;9.40;99.90
3678;DHT22;1855;50.934;6.958;2023-11-21T09:08:05;9.40;99.90
3678;DHT22;1855;50.934;6.958;2023-11-21T09:10:33;9.40;99.90
3678;DHT22;1855;50.934;6.958;2023-11-21T09:13:01;9.40;99.90
3678;DHT22;1855;50.934;6.958;2023-11-21T09:15:28;9.40;99.90
3678;DHT22;1855;50.934;6.958;2023-11-21T09:17:56;9.40;99.90
3678;DHT22;1855;50.934;6.958;2023-11-21T09:20:23;9.40;99.90
3678;DHT22;1855;50.934;6.958;2023-11-21T09:22:50;9.40;99.90
3678;DHT22;1855;50.934;6.958;2023-11-21T09:25:17;9.50;99.90
3678;DHT22;1855;50.934;6.958;2023-11-21T09:27:45;9.50;99.90
3678;DHT22;1855;50.934;6.958;2023-11-21T09:30:13;9.50;99.90
3678;DHT22;1855;50.934;6.958;2023-11-21T09:32:40;9.50;99.90
3678;DHT22;1855;50.934;6.958;2023-11-21T09:35:12;9.50;99.90
3678;DHT22;1855;50.934;6.958;2023-11-21T09:37:39;9.50;99.90
3678;DHT22;1855;50.934;6.958;2023-11-21T09:40:09;9.50;99.90
3678;DHT22;1855;50.934;6.958;2023-11-21T09:42:40;9.50;99.90
3678;DHT22;1855;50.934;6.958;2023-11-21T09:45:15;9.60;99.90
3678;DHT22;1855;50.934;6.958;2023-11-21T09:47:43;9.60;99.90
3678;DHT22;1855;50.934;6.958;2023-11-21T09:50:13;9.60;99.90
3678;DHT22;1855;50.934;6.958;2023-11-21T09:52:52;9.60;99.90
3678;DHT22;1855;50.934;6.958;2023-11-21T09:55:21;9.60;99.90
3678;DHT22;1855;50.934;6.958;2023-11-21T09:57:49;9.60;99.90
3678;DHT22;1855;50.934;6.958;2023-11-21T10:00:16;9.70;99.90
3678;DHT22;1855;50.934;6.958;2023-11-21T10:02:45;9.60;99.90
3678;DHT22;1855;50.934;6.958;2023-11-21T10:05:14;9.60;99.90
3678;DHT22;1855;50.934;6.958;2023-11-21T10:07:42;9.70;99.90
3678;DHT22;1855;50.934;6.958;2023-11-21T10:10:10;9.70;99.90
3678;DHT22;1855;50.934;6.958;2023-11-21T10:12:37;9.70;99.90
3678;DHT22;1855;50.934;6.958;2023-11-21T10:15:08;9.70;99.90
3678;DHT22;1855;50.934;6.958;2023-11-21T10:17:38;9.80;99.90
3678;DHT22;1855;50.934;6.958;2023-11-21T10:20:09;9.80;99.90
3678;DHT22;1855;50.934;6.958;2023-11-21T10:22:40;9.90;99.90
3678;DHT22;1855;50.934;6.958;2023-11-21T10:25:08;9.90;99.90
3678;DHT22;1855;50.934;6.958;2023-11-21T10:27:35;10.00;99.90
3678;DHT22;1855;50.934;6.958;2023-11-21T10:30:02;10.00;99.90
3678;DHT22;1855;50.934;6.958;2023-11-21T10:32:29;10.10;99.90
3678;DHT22;1855;50.934;6.958;2023-11-21T10:34:58;10.10;99.90
3678;DHT22;1855;50.934;6.958;2023-11-21T10:37:27;10.10;99.90
3678;DHT22;1855;50.934;6.958;2023-11-21T10:39:58;10.20;99.90
3678;DHT22;1855;50.934;6.958;2023-11-21T10:42:25;10.20;99.90
3678;DHT22;1855;50.934;6.958;2023-11-21T10:44:52;10.20;99.90
3678;DHT22;1855;50.934;6.958;2023-11-21T10:47:19;10.30;99.90
3678;DHT22;1855;50.934;6.958;2023-11-21T10:49:48;10.30;99.90
3678;DHT22;1855;50.934;6.958;2023-11-21T10:52:16;10.30;99.90
3678;DHT22;1855;50.934;6.958;2023-11-21T10:54:46;10.40;99.90
3678;DHT22;1855;50.934;6.958;2023-11-21T10:57:17;10.40;99.90
3678;DHT22;1855;50.934;6.958;2023-11-21T10:59:46;10.30;99.90
3678;DHT22;1855;50.934;6.958;2023-11-21T11:02:21;10.30;99.90
3678;DHT22;1855;50.934;6.958;2023-11-21T11:04:52;10.30;99.90
3678;DHT22;1855;50.934;6.958;2023-11-21T11:07:21;10.30;99.90
3678;DHT22;1855;50.934;6.958;2023-11-21T11:09:52;10.20;99.90
3678;DHT22;1855;50.934;6.958;2023-11-21T11:12:21;10.20;99.90
3678;DHT22;1855;50.934;6.958;2023-11-21T11:14:48;10.20;99.90
3678;DHT22;1855;50.934;6.958;2023-11-21T11:17:15;10.20;99.90
3678;DHT22;1855;50.934;6.958;2023-11-21T11:19:42;10.20;99.90
3678;DHT22;1855;50.934;6.958;2023-11-21T11:22:19;10.20;99.90
3678;DHT22;1855;50.934;6.958;2023-11-21T11:25:16;10.20;99.90
3678;DHT22;1855;50.934;6.958;2023-11-21T11:27:54;10.30;99.90
3678;DHT22;1855;50.934;6.958;2023-11-21T11:30:32;10.30;99.90
3678;DHT22;1855;50.934;6.958;2023-11-21T11:33:11;10.40;99.90
3678;DHT22;1855;50.934;6.958;2023-11-21T11:35:49;10.40;99.90
3678;DHT22;1855;50.934;6.958;2023-11-21T11:38:21;10.40;99.90
3678;DHT22;1855;50.934;6.958;2023-11-21T11:40:48;10.40;99.90
3678;DHT22;1855;50.934;6.958;2023-11-21T11:43:26;10.40;99.90
3678;DHT22;1855;50.934;6.958;2023-11-21T11:45:55;10.40;99.90
3678;DHT22;1855;50.934;6.958;2023-11-21T11:48:24;10.50;99.90
3678;DHT22;1855;50.934;6.958;2023-11-21T11:51:04;10.50;99.90
3678;DHT22;1855;50.934;6.958;2023-11-21T11:53:36;10.50;99.90
3678;DHT22;1855;50.934;6.958;2023-11-21T11:56:31;10.40;99.90
3678;DHT22;1855;50.934;6.958;2023-11-21T11:59:03;10.40;99.90
3678;DHT22;1855;50.934;6.958;2023-11-21T12:01:32;10.40;99.90
3678;DHT22;1855;50.934;6.958;2023-11-21T12:04:23;10.50;99.90
3678;DHT22;1855;50.934;6.958;2023-11-21T12:06:56;10.50;99.90
3678;DHT22;1855;50.934;6.958;2023-11-21T12:09:25;10.50;99.90
3678;DHT22;1855;50.934;6.958;2023-11-21T12:11:53;10.50;99.90
3678;DHT22;1855;50.934;6.958;2023-11-21T12:14:23;10.60;99.90
3678;DHT22;1855;50.934;6.958;2023-11-21T12:16:50;10.60;99.90
3678;DHT22;1855;50.934;6.958;2023-11-21T12:19:17;10.60;99.90
3678;DHT22;1855;50.934;6.958;2023-11-21T12:21:45;10.50;99.90
3678;DHT22;1855;50.934;6.958;2023-11-21T12:24:14;10.50;99.90
3678;DHT22;1855;50.934;6.958;2023-11-21T12:26:42;10.50;99.90
3678;DHT22;1855;50.934;6.958;2023-11-21T12:29:09;10.50;99.90
3678;DHT22;1855;50.934;6.958;2023-11-21T12:31:37;10.50;99.90
3678;DHT22;1855;50.934;6.958;2023-11-21T12:34:04;10.50;99.90
3678;DHT22;1855;50.934;6.958;2023-11-21T12:36:32;10.60;99.90
3678;DHT22;1855;50.934;6.958;2023-11-21T12:39:00;10.60;99.90
3678;DHT22;1855;50.934;6.958;2023-11-21T12:41:28;10.50;99.90
3678;DHT22;1855;50.934;6.958;2023-11-21T12:43:56;10.50;99.90
3678;DHT22;1855;50.934;6.958;2023-11-21T12:46:23;10.50;99.90
3678;DHT22;1855;50.934;6.958;2023-11-21T12:48:52;10.50;99.90
3678;DHT22;1855;50.934;6.958;2023-11-21T12:51:19;10.50;99.90
3678;DHT22;1855;50.934;6.958;2023-11-21T12:53:47;10.50;99.90
3678;DHT22;1855;50.934;6.958;2023-11-21T12:56:14;10.50;99.90
3678;DHT22;1855;50.934;6.958;2023-11-21T12:58:45;10.50;99.90
3678;DHT22;1855;50.934;6.958;2023-11-21T13:01:13;10.50;99.90
3678;DHT22;1855;50.934;6.958;2023-11-21T13:03:46;10.50;99.90
3678;DHT22;1855;50.934;6.958;2023-11-21T13:06:15;10.40;99.90
3678;DHT22;1855;50.934;6.958;2023-11-21T13:08:44;10.40;99.90
3678;DHT22;1855;50.934;6.958;2023-11-21T13:11:11;10.40;99.90
3678;DHT22;1855;50.934;6.958;2023-11-21T13:13:41;10.40;99.90
3678;DHT22;1855;50.934;6.958;2023-11-21T13:16:08;10.40;99.90
3678;DHT22;1855;50.934;6.958;2023-11-21T13:18:35;10.50;99.90
3678;DHT22;1855;50.934;6.958;2023-11-21T13:21:04;10.50;99.90
3678;DHT22;1855;50.934;6.958;2023-11-21T13:23:37;10.60;99.90
3678;DHT22;1855;50.934;6.958;2023-11-21T13:26:04;10.60;99.90
3678;DHT22;1855;50.934;6.958;2023-11-21T13:28:32;10.60;99.90
3678;DHT22;1855;50.934;6.958;2023-11-21T13:30:59;10.60;99.90
3678;DHT22;1855;50.934;6.958;2023-11-21T13:33:29;10.70;99.90
3678;DHT22;1855;50.934;6.958;2023-11-21T13:35:56;10.70;99.90
3678;DHT22;1855;50.934;6.958;2023-11-21T13:38:23;10.80;99.90
3678;DHT22;1855;50.934;6.958;2023-11-21T13:40:52;10.90;99.90
3678;DHT22;1855;50.934;6.958;2023-11-21T13:43:21;10.90;99.90
3678;DHT22;1855;50.934;6.958;2023-11-21T13:45:50;10.90;99.90
3678;DHT22;1855;50.934;6.958;2023-11-21T13:48:21;10.90;99.90
3678;DHT22;1855;50.934;6.958;2023-11-21T13:50:53;10.90;99.90
3678;DHT22;1855;50.934;6.958;2023-11-21T13:53:24;10.90;99.90
3678;DHT22;1855;50.934;6.958;2023-11-21T13:55:53;10.90;99.90
3678;DHT22;1855;50.934;6.958;2023-11-21T13:58:23;10.80;99.90
3678;DHT22;1855;50.934;6.958;2023-11-21T14:01:00;10.80;99.90
3678;DHT22;1855;50.934;6.958;2023-11-21T14:03:31;10.80;99.90
3678;DHT22;1855;50.934;6.958;2023-11-21T14:06:05;10.80;99.90
3678;DHT22;1855;50.934;6.958;2023-11-21T14:08:39;10.70;99.90
3678;DHT22;1855;50.934;6.958;2023-11-21T14:11:08;10.70;99.90
3678;DHT22;1855;50.934;6.958;2023-11-21T14:13:39;10.70;99.90
3678;DHT22;1855;50.934;6.958;2023-11-21T14:16:11;10.70;99.90
3678;DHT22;1855;50.934;6.958;2023-11-21T14:18:39;10.80;99.90
3678;DHT22;1855;50.934;6.958;2023-11-21T14:21:17;10.70;99.90
3678;DHT22;1855;50.934;6.958;2023-11-21T14:23:44;10.70;99.90
3678;DHT22;1855;50.934;6.958;2023-11-21T14:26:13;10.70;99.90
3678;DHT22;1855;50.934;6.958;2023-11-21T14:28:41;10.70;99.90
3678;DHT22;1855;50.934;6.958;2023-11-21T14:31:08;10.70;99.90
3678;DHT22;1855;50.934;6.958;2023-11-21T14:33:38;10.70;99.90
3678;DHT22;1855;50.934;6.958;2023-11-21T14:36:06;10.70;99.90
3678;DHT22;1855;50.934;6.958;2023-11-21T14:38:35;10.70;99.90
3678;DHT22;1855;50.934;6.958;2023-11-21T14:41:02;10.60;99.90
3678;DHT22;1855;50.934;6.958;2023-11-21T14:43:34;10.60;99.90
3678;DHT22;1855;50.934;6.958;2023-11-21T14:46:01;10.60;99.90
3678;DHT22;1855;50.934;6.958;2023-11-21T14:48:29;10.60;99.90
3678;DHT22;1855;50.934;6.958;2023-11-21T14:51:08;10.60;99.90
3678;DHT22;1855;50.934;6.958;2023-11-21T14:53:56;10.60;99.90
3678;DHT22;1855;50.934;6.958;2023-11-21T14:56:26;10.60;99.90
3678;DHT22;1855;50.934;6.958;2023-11-21T14:58:57;10.50;99.90
3678;DHT22;1855;50.934;6.958;2023-11-21T15:01:25;10.50;99.90
3678;DHT22;1855;50.934;6.958;2023-11-21T15:04:08;10.50;99.90
3678;DHT22;1855;50.934;6.958;2023-11-21T15:06:40;10.40;99.90
3678;DHT22;1855;50.934;6.958;2023-11-21T15:09:08;10.40;99.90
3678;DHT22;1855;50.934;6.958;2023-11-21T15:12:02;10.50;99.90
3678;DHT22;1855;50.934;6.958;2023-11-21T15:14:41;10.50;99.90
3678;DHT22;1855;50.934;6.958;2023-11-21T15:17:08;10.40;99.90
3678;DHT22;1855;50.934;6.958;2023-11-21T15:19:35;10.40;99.90
3678;DHT22;1855;50.934;6.958;2023-11-21T15:22:02;10.40;99.90
3678;DHT22;1855;50.934;6.958;2023-11-21T15:24:29;10.30;99.90
3678;DHT22;1855;50.934;6.958;2023-11-21T15:26:56;10.20;99.90
3678;DHT22;1855;50.934;6.958;2023-11-21T15:29:23;10.20;99.90
3678;DHT22;1855;50.934;6.958;2023-11-21T15:31:52;10.20;99.90
3678;DHT22;1855;50.934;6.958;2023-11-21T15:34:21;10.10;99.90
3678;DHT22;1855;50.934;6.958;2023-11-21T15:36:48;10.10;99.90
3678;DHT22;1855;50.934;6.958;2023-11-21T15:39:18;10.10;99.90
3678;DHT22;1855;50.934;6.958;2023-11-21T15:41:46;10.00;99.90
3678;DHT22;1855;50.934;6.958;2023-11-21T15:44:13;10.00;99.90
3678;DHT22;1855;50.934;6.958;2023-11-21T15:46:40;10.00;99.90
3678;DHT22;1855;50.934;6.958;2023-11-21T15:49:10;10.00;99.90
3678;DHT22;1855;50.934;6.958;2023-11-21T15:51:39;10.00;99.90
3678;DHT22;1855;50.934;6.958;2023-11-21T15:54:06;10.00;99.90
3678;DHT22;1855;50.934;6.958;2023-11-21T15:56:34;10.00;99.90
3678;DHT22;1855;50.934;6.958;2023-11-21T15:59:01;10.00;99.90
3678;DHT22;1855;50.934;6.958;2023-11-21T16:01:29;10.00;99.90
3678;DHT22;1855;50.934;6.958;2023-11-21T16:03:56;9.90;99.90
3678;DHT22;1855;50.934;6.958;2023-11-21T16:06:27;9.90;99.90
3678;DHT22;1855;50.934;6.958;2023-11-21T16:08:54;9.90;99.90
3678;DHT22;1855;50.934;6.958;2023-11-21T16:11:24;9.90;99.90
3678;DHT22;1855;50.934;6.958;2023-11-21T16:13:50;9.90;99.90
3678;DHT22;1855;50.934;6.958;2023-11-21T16:16:20;9.90;99.90
3678;DHT22;1855;50.934;6.958;2023-11-21T16:18:47;9.90;99.90